sensor_id;sensor_type;location;lat;lon;timestamp;temperature;humidity
62809;DHT22;48848;39.002;-94.584;2023-04-03T00:01:00;23.30;40.40
62809;DHT22;48848;39.002;-94.584;2023-04-03T00:03:26;23.30;40.80
62809;DHT22;48848;39.002;-94.584;2023-04-03T00:05:52;23.20;40.70
62809;DHT22;48848;39.002;-94.584;2023-04-03T00:08:18;23.30;40.70
62809;DHT22;48848;39.002;-94.584;2023-04-03T00:10:44;23.30;40.60
62809;DHT22;48848;39.002;-94.584;2023-04-03T00:13:10;23.30;40.70
62809;DHT22;48848;39.002;-94.584;2023-04-03T00:15:36;23.40;40.90
62809;DHT22;48848;39.002;-94.584;2023-04-03T00:18:02;23.50;40.80
62809;DHT22;48848;39.002;-94.584;2023-04-03T00:20:28;23.50;40.90
62809;DHT22;48848;39.002;-94.584;2023-04-03T00:22:54;23.40;40.90
62809;DHT22;48848;39.002;-94.584;2023-04-03T00:25:20;23.50;41.00
62809;DHT22;48848;39.002;-94.584;2023-04-03T00:27:46;23.40;41.30
62809;DHT22;48848;39.002;-94.584;2023-04-03T00:30:16;23.40;41.40
62809;DHT22;48848;39.002;-94.584;2023-04-03T00:32:42;23.50;41.40
62809;DHT22;48848;39.002;-94.584;2023-04-03T00:35:08;23.50;41.70
62809;DHT22;48848;39.002;-94.584;2023-04-03T00:37:34;23.50;41.70
62809;DHT22;48848;39.002;-94.584;2023-04-03T00:40:00;23.50;41.60
62809;DHT22;48848;39.002;-94.584;2023-04-03T00:42:26;23.50;41.60
62809;DHT22;48848;39.002;-94.584;2023-04-03T00:47:18;23.60;43.20
62809;DHT22;48848;39.002;-94.584;2023-04-03T00:49:44;23.60;41.70
62809;DHT22;48848;39.002;-94.584;2023-04-03T00:52:15;23.60;41.80
62809;DHT22;48848;39.002;-94.584;2023-04-03T00:54:41;23.70;42.20
62809;DHT22;48848;39.002;-94.584;2023-04-03T00:57:08;23.70;42.20
62809;DHT22;48848;39.002;-94.584;2023-04-03T00:59:35;23.80;43.00
62809;DHT22;48848;39.002;-94.584;2023-04-03T01:02:01;23.80;42.10
62809;DHT22;48848;39.002;-94.584;2023-04-03T01:04:28;23.80;42.00
62809;DHT22;48848;39.002;-94.584;2023-04-03T01:06:55;23.80;42.10
62809;DHT22;48848;39.002;-94.584;2023-04-03T01:09:21;23.80;42.50
62809;DHT22;48848;39.002;-94.584;2023-04-03T01:11:48;23.80;42.00
62809;DHT22;48848;39.002;-94.584;2023-04-03T01:14:13;23.80;42.10
62809;DHT22;48848;39.002;-94.584;2023-04-03T01:16:40;23.80;42.60
62809;DHT22;48848;39.002;-94.584;2023-04-03T01:19:10;23.80;42.20
62809;DHT22;48848;39.002;-94.584;2023-04-03T01:26:45;24.00;42.80
62809;DHT22;48848;39.002;-94.584;2023-04-03T01:29:11;24.00;42.50
62809;DHT22;48848;39.002;-94.584;2023-04-03T01:34:03;24.00;42.60
62809;DHT22;48848;39.002;-94.584;2023-04-03T01:36:29;24.00;42.70
62809;DHT22;48848;39.002;-94.584;2023-04-03T01:38:56;24.00;42.90
62809;DHT22;48848;39.002;-94.584;2023-04-03T01:41:22;24.10;42.80
62809;DHT22;48848;39.002;-94.584;2023-04-03T01:43:48;24.00;42.60
62809;DHT22;48848;39.002;-94.584;2023-04-03T01:46:18;24.10;42.60
62809;DHT22;48848;39.002;-94.584;2023-04-03T01:48:44;24.10;42.60
62809;DHT22;48848;39.002;-94.584;2023-04-03T01:51:10;24.10;42.70
62809;DHT22;48848;39.002;-94.584;2023-04-03T01:53:36;24.10;42.90
62809;DHT22;48848;39.002;-94.584;2023-04-03T01:56:02;24.10;43.20
62809;DHT22;48848;39.002;-94.584;2023-04-03T01:58:28;24.10;43.30
62809;DHT22;48848;39.002;-94.584;2023-04-03T02:00:54;24.10;43.30
62809;DHT22;48848;39.002;-94.584;2023-04-03T02:03:20;24.20;43.10
62809;DHT22;48848;39.002;-94.584;2023-04-03T02:05:46;24.20;43.10
62809;DHT22;48848;39.002;-94.584;2023-04-03T02:08:11;24.40;45.40
62809;DHT22;48848;39.002;-94.584;2023-04-03T02:10:38;24.50;42.80
62809;DHT22;48848;39.002;-94.584;2023-04-03T02:13:04;24.50;42.50
62809;DHT22;48848;39.002;-94.584;2023-04-03T02:15:30;24.60;42.70
62809;DHT22;48848;39.002;-94.584;2023-04-03T02:17:56;24.60;42.10
62809;DHT22;48848;39.002;-94.584;2023-04-03T02:20:22;24.60;42.20
62809;DHT22;48848;39.002;-94.584;2023-04-03T02:22:48;24.70;41.90
62809;DHT22;48848;39.002;-94.584;2023-04-03T02:25:14;24.70;42.00
62809;DHT22;48848;39.002;-94.584;2023-04-03T02:27:40;24.70;42.10
62809;DHT22;48848;39.002;-94.584;2023-04-03T02:30:06;24.80;42.50
62809;DHT22;48848;39.002;-94.584;2023-04-03T02:32:32;24.80;42.00
62809;DHT22;48848;39.002;-94.584;2023-04-03T02:34:58;24.80;44.30
62809;DHT22;48848;39.002;-94.584;2023-04-03T02:37:24;24.80;43.00
62809;DHT22;48848;39.002;-94.584;2023-04-03T02:39:50;24.80;41.70
62809;DHT22;48848;39.002;-94.584;2023-04-03T02:42:15;24.90;44.30
62809;DHT22;48848;39.002;-94.584;2023-04-03T02:44:41;24.90;43.70
62809;DHT22;48848;39.002;-94.584;2023-04-03T02:47:07;24.90;43.80
62809;DHT22;48848;39.002;-94.584;2023-04-03T02:49:33;24.90;42.80
62809;DHT22;48848;39.002;-94.584;2023-04-03T02:51:59;24.90;42.10
62809;DHT22;48848;39.002;-94.584;2023-04-03T02:54:25;24.90;42.00
62809;DHT22;48848;39.002;-94.584;2023-04-03T02:56:54;24.90;42.40
62809;DHT22;48848;39.002;-94.584;2023-04-03T02:59:20;24.90;42.60
62809;DHT22;48848;39.002;-94.584;2023-04-03T03:01:45;24.90;41.60
62809;DHT22;48848;39.002;-94.584;2023-04-03T03:04:11;24.90;41.20
62809;DHT22;48848;39.002;-94.584;2023-04-03T03:06:41;25.00;41.60
62809;DHT22;48848;39.002;-94.584;2023-04-03T03:09:07;25.00;40.90
62809;DHT22;48848;39.002;-94.584;2023-04-03T03:11:33;25.10;40.90
62809;DHT22;48848;39.002;-94.584;2023-04-03T03:13:59;25.10;41.60
62809;DHT22;48848;39.002;-94.584;2023-04-03T03:16:25;25.10;48.20
62809;DHT22;48848;39.002;-94.584;2023-04-03T03:18:50;25.10;42.80
62809;DHT22;48848;39.002;-94.584;2023-04-03T03:21:16;25.00;39.00
62809;DHT22;48848;39.002;-94.584;2023-04-03T03:23:42;25.10;39.30
62809;DHT22;48848;39.002;-94.584;2023-04-03T03:26:09;25.10;39.20
62809;DHT22;48848;39.002;-94.584;2023-04-03T03:28:36;25.10;39.30
62809;DHT22;48848;39.002;-94.584;2023-04-03T03:31:02;25.10;39.60
62809;DHT22;48848;39.002;-94.584;2023-04-03T03:33:29;25.10;39.50
62809;DHT22;48848;39.002;-94.584;2023-04-03T03:35:55;25.00;39.60
62809;DHT22;48848;39.002;-94.584;2023-04-03T03:38:21;25.00;39.60
62809;DHT22;48848;39.002;-94.584;2023-04-03T03:40:48;25.00;39.80
62809;DHT22;48848;39.002;-94.584;2023-04-03T03:43:14;25.00;39.70
62809;DHT22;48848;39.002;-94.584;2023-04-03T03:45:40;25.00;39.90
62809;DHT22;48848;39.002;-94.584;2023-04-03T03:48:06;25.00;39.90
62809;DHT22;48848;39.002;-94.584;2023-04-03T03:50:32;25.00;40.00
62809;DHT22;48848;39.002;-94.584;2023-04-03T03:52:58;25.00;39.90
62809;DHT22;48848;39.002;-94.584;2023-04-03T03:55:24;25.00;40.00
62809;DHT22;48848;39.002;-94.584;2023-04-03T03:57:49;25.00;40.00
62809;DHT22;48848;39.002;-94.584;2023-04-03T04:00:15;25.00;40.00
62809;DHT22;48848;39.002;-94.584;2023-04-03T04:02:42;25.00;40.10
62809;DHT22;48848;39.002;-94.584;2023-04-03T04:05:08;25.00;40.10
62809;DHT22;48848;39.002;-94.584;2023-04-03T04:07:33;25.00;40.00
62809;DHT22;48848;39.002;-94.584;2023-04-03T04:09:59;25.00;40.10
62809;DHT22;48848;39.002;-94.584;2023-04-03T04:12:25;25.00;40.00
62809;DHT22;48848;39.002;-94.584;2023-04-03T04:14:51;24.90;40.00
62809;DHT22;48848;39.002;-94.584;2023-04-03T04:17:17;24.90;40.40
62809;DHT22;48848;39.002;-94.584;2023-04-03T04:19:43;24.80;40.50
62809;DHT22;48848;39.002;-94.584;2023-04-03T04:22:09;24.70;40.70
62809;DHT22;48848;39.002;-94.584;2023-04-03T04:24:35;24.70;40.80
62809;DHT22;48848;39.002;-94.584;2023-04-03T04:27:00;24.60;40.90
62809;DHT22;48848;39.002;-94.584;2023-04-03T04:29:26;24.60;41.00
62809;DHT22;48848;39.002;-94.584;2023-04-03T04:31:52;24.60;41.10
62809;DHT22;48848;39.002;-94.584;2023-04-03T04:34:18;24.50;41.20
62809;DHT22;48848;39.002;-94.584;2023-04-03T04:36:44;24.50;41.20
62809;DHT22;48848;39.002;-94.584;2023-04-03T04:39:10;24.50;41.30
62809;DHT22;48848;39.002;-94.584;2023-04-03T04:41:35;24.40;41.30
62809;DHT22;48848;39.002;-94.584;2023-04-03T04:44:02;24.40;41.40
62809;DHT22;48848;39.002;-94.584;2023-04-03T04:46:28;24.40;41.50
62809;DHT22;48848;39.002;-94.584;2023-04-03T04:48:54;24.40;41.50
62809;DHT22;48848;39.002;-94.584;2023-04-03T04:51:19;24.40;41.60
62809;DHT22;48848;39.002;-94.584;2023-04-03T04:53:45;24.30;41.60
62809;DHT22;48848;39.002;-94.584;2023-04-03T04:56:11;24.30;41.60
62809;DHT22;48848;39.002;-94.584;2023-04-03T04:58:37;24.30;41.60
62809;DHT22;48848;39.002;-94.584;2023-04-03T05:01:07;24.30;41.70
62809;DHT22;48848;39.002;-94.584;2023-04-03T05:03:33;24.30;41.60
62809;DHT22;48848;39.002;-94.584;2023-04-03T05:05:59;24.30;41.70
62809;DHT22;48848;39.002;-94.584;2023-04-03T05:08:25;24.30;41.80
62809;DHT22;48848;39.002;-94.584;2023-04-03T05:10:50;24.30;41.80
62809;DHT22;48848;39.002;-94.584;2023-04-03T05:13:16;24.30;41.90
62809;DHT22;48848;39.002;-94.584;2023-04-03T05:15:42;24.20;41.90
62809;DHT22;48848;39.002;-94.584;2023-04-03T05:18:08;24.20;42.00
62809;DHT22;48848;39.002;-94.584;2023-04-03T05:20:34;24.20;42.00
62809;DHT22;48848;39.002;-94.584;2023-04-03T05:23:00;24.20;42.20
62809;DHT22;48848;39.002;-94.584;2023-04-03T05:25:26;24.10;42.20
62809;DHT22;48848;39.002;-94.584;2023-04-03T05:27:52;24.10;42.20
62809;DHT22;48848;39.002;-94.584;2023-04-03T05:30:18;24.10;42.10
62809;DHT22;48848;39.002;-94.584;2023-04-03T05:32:44;24.10;42.10
62809;DHT22;48848;39.002;-94.584;2023-04-03T05:35:10;24.10;42.10
62809;DHT22;48848;39.002;-94.584;2023-04-03T05:37:36;24.10;42.20
62809;DHT22;48848;39.002;-94.584;2023-04-03T05:40:03;24.10;42.10
62809;DHT22;48848;39.002;-94.584;2023-04-03T05:42:29;24.10;42.40
62809;DHT22;48848;39.002;-94.584;2023-04-03T05:44:55;24.10;42.30
62809;DHT22;48848;39.002;-94.584;2023-04-03T05:47:21;24.00;42.60
62809;DHT22;48848;39.002;-94.584;2023-04-03T05:49:47;24.00;42.20
62809;DHT22;48848;39.002;-94.584;2023-04-03T05:54:57;24.00;42.40
62809;DHT22;48848;39.002;-94.584;2023-04-03T05:57:23;24.00;42.20
62809;DHT22;48848;39.002;-94.584;2023-04-03T05:59:49;24.00;42.40
62809;DHT22;48848;39.002;-94.584;2023-04-03T06:02:16;24.00;42.60
62809;DHT22;48848;39.002;-94.584;2023-04-03T06:04:43;24.00;42.50
62809;DHT22;48848;39.002;-94.584;2023-04-03T06:07:12;24.00;42.60
62809;DHT22;48848;39.002;-94.584;2023-04-03T06:09:39;24.00;42.60
62809;DHT22;48848;39.002;-94.584;2023-04-03T06:12:05;23.90;42.30
62809;DHT22;48848;39.002;-94.584;2023-04-03T06:14:31;23.90;42.20
62809;DHT22;48848;39.002;-94.584;2023-04-03T06:16:56;24.00;42.70
62809;DHT22;48848;39.002;-94.584;2023-04-03T06:19:22;24.00;42.30
62809;DHT22;48848;39.002;-94.584;2023-04-03T06:21:48;23.90;42.20
62809;DHT22;48848;39.002;-94.584;2023-04-03T06:24:15;23.90;42.30
62809;DHT22;48848;39.002;-94.584;2023-04-03T06:26:41;23.90;42.30
62809;DHT22;48848;39.002;-94.584;2023-04-03T06:29:07;23.90;42.20
62809;DHT22;48848;39.002;-94.584;2023-04-03T06:31:33;23.90;42.20
62809;DHT22;48848;39.002;-94.584;2023-04-03T06:33:59;23.90;42.20
62809;DHT22;48848;39.002;-94.584;2023-04-03T06:36:25;23.90;42.60
62809;DHT22;48848;39.002;-94.584;2023-04-03T06:38:51;23.90;42.70
62809;DHT22;48848;39.002;-94.584;2023-04-03T06:41:17;23.90;42.40
62809;DHT22;48848;39.002;-94.584;2023-04-03T06:43:44;23.90;42.60
62809;DHT22;48848;39.002;-94.584;2023-04-03T06:46:17;23.90;42.30
62809;DHT22;48848;39.002;-94.584;2023-04-03T06:48:43;23.90;42.30
62809;DHT22;48848;39.002;-94.584;2023-04-03T06:51:20;23.90;42.30
62809;DHT22;48848;39.002;-94.584;2023-04-03T06:53:49;23.80;42.20
62809;DHT22;48848;39.002;-94.584;2023-04-03T06:56:16;23.80;42.20
62809;DHT22;48848;39.002;-94.584;2023-04-03T06:58:42;23.80;42.60
62809;DHT22;48848;39.002;-94.584;2023-04-03T07:01:08;23.80;42.30
62809;DHT22;48848;39.002;-94.584;2023-04-03T07:03:35;23.80;42.40
62809;DHT22;48848;39.002;-94.584;2023-04-03T07:06:02;23.80;42.50
62809;DHT22;48848;39.002;-94.584;2023-04-03T07:08:28;23.80;42.50
62809;DHT22;48848;39.002;-94.584;2023-04-03T07:10:54;23.80;42.70
62809;DHT22;48848;39.002;-94.584;2023-04-03T07:13:20;23.70;42.60
62809;DHT22;48848;39.002;-94.584;2023-04-03T07:15:46;23.80;42.60
62809;DHT22;48848;39.002;-94.584;2023-04-03T07:18:11;23.80;42.30
62809;DHT22;48848;39.002;-94.584;2023-04-03T07:20:38;23.70;42.50
62809;DHT22;48848;39.002;-94.584;2023-04-03T07:23:04;23.70;42.30
62809;DHT22;48848;39.002;-94.584;2023-04-03T07:25:30;23.70;42.40
62809;DHT22;48848;39.002;-94.584;2023-04-03T07:27:57;23.70;42.20
62809;DHT22;48848;39.002;-94.584;2023-04-03T07:30:23;23.70;42.50
62809;DHT22;48848;39.002;-94.584;2023-04-03T07:32:49;23.70;42.30
62809;DHT22;48848;39.002;-94.584;2023-04-03T07:35:15;23.70;42.50
62809;DHT22;48848;39.002;-94.584;2023-04-03T07:37:42;23.70;42.40
62809;DHT22;48848;39.002;-94.584;2023-04-03T07:40:08;23.70;42.40
62809;DHT22;48848;39.002;-94.584;2023-04-03T07:42:34;23.60;42.30
62809;DHT22;48848;39.002;-94.584;2023-04-03T07:45:00;23.70;42.50
62809;DHT22;48848;39.002;-94.584;2023-04-03T07:47:27;23.70;42.50
62809;DHT22;48848;39.002;-94.584;2023-04-03T07:49:53;23.60;42.60
62809;DHT22;48848;39.002;-94.584;2023-04-03T07:52:19;23.60;42.30
62809;DHT22;48848;39.002;-94.584;2023-04-03T07:54:45;23.60;42.40
62809;DHT22;48848;39.002;-94.584;2023-04-03T07:57:11;23.60;42.40
62809;DHT22;48848;39.002;-94.584;2023-04-03T07:59:37;23.60;42.40
62809;DHT22;48848;39.002;-94.584;2023-04-03T08:02:02;23.60;42.40
62809;DHT22;48848;39.002;-94.584;2023-04-03T08:04:30;23.60;42.30
62809;DHT22;48848;39.002;-94.584;2023-04-03T08:06:56;23.60;42.30
62809;DHT22;48848;39.002;-94.584;2023-04-03T08:09:22;23.60;42.40
62809;DHT22;48848;39.002;-94.584;2023-04-03T08:11:47;23.50;42.20
62809;DHT22;48848;39.002;-94.584;2023-04-03T08:14:13;23.50;42.40
62809;DHT22;48848;39.002;-94.584;2023-04-03T08:16:45;23.50;42.50
62809;DHT22;48848;39.002;-94.584;2023-04-03T08:19:11;23.50;42.50
62809;DHT22;48848;39.002;-94.584;2023-04-03T08:21:41;23.50;42.50
62809;DHT22;48848;39.002;-94.584;2023-04-03T08:24:07;23.50;42.50
62809;DHT22;48848;39.002;-94.584;2023-04-03T08:26:33;23.50;42.50
62809;DHT22;48848;39.002;-94.584;2023-04-03T08:28:58;23.50;42.60
62809;DHT22;48848;39.002;-94.584;2023-04-03T08:31:24;23.50;42.50
62809;DHT22;48848;39.002;-94.584;2023-04-03T08:33:50;23.40;42.50
62809;DHT22;48848;39.002;-94.584;2023-04-03T08:36:20;23.40;42.60
62809;DHT22;48848;39.002;-94.584;2023-04-03T08:38:47;23.40;42.50
62809;DHT22;48848;39.002;-94.584;2023-04-03T08:46:38;23.40;42.70
62809;DHT22;48848;39.002;-94.584;2023-04-03T08:49:07;23.40;42.70
62809;DHT22;48848;39.002;-94.584;2023-04-03T08:51:36;23.40;43.70
62809;DHT22;48848;39.002;-94.584;2023-04-03T08:54:06;23.40;42.80
62809;DHT22;48848;39.002;-94.584;2023-04-03T08:56:40;23.40;42.70
62809;DHT22;48848;39.002;-94.584;2023-04-03T08:59:10;23.30;42.60
62809;DHT22;48848;39.002;-94.584;2023-04-03T09:01:37;23.30;42.80
62809;DHT22;48848;39.002;-94.584;2023-04-03T09:04:09;23.30;42.80
62809;DHT22;48848;39.002;-94.584;2023-04-03T09:06:36;23.30;42.80
62809;DHT22;48848;39.002;-94.584;2023-04-03T09:14:13;23.30;42.90
62809;DHT22;48848;39.002;-94.584;2023-04-03T09:22:16;23.20;42.90
62809;DHT22;48848;39.002;-94.584;2023-04-03T09:24:47;23.20;42.90
62809;DHT22;48848;39.002;-94.584;2023-04-03T09:27:14;23.20;43.00
62809;DHT22;48848;39.002;-94.584;2023-04-03T09:29:41;23.20;43.00
62809;DHT22;48848;39.002;-94.584;2023-04-03T09:32:31;23.20;43.00
62809;DHT22;48848;39.002;-94.584;2023-04-03T09:34:59;23.20;43.10
62809;DHT22;48848;39.002;-94.584;2023-04-03T09:37:39;23.20;43.00
62809;DHT22;48848;39.002;-94.584;2023-04-03T09:40:06;23.10;43.00
62809;DHT22;48848;39.002;-94.584;2023-04-03T09:43:01;23.10;43.30
62809;DHT22;48848;39.002;-94.584;2023-04-03T09:45:32;23.10;43.30
62809;DHT22;48848;39.002;-94.584;2023-04-03T09:48:20;23.10;43.20
62809;DHT22;48848;39.002;-94.584;2023-04-03T09:53:27;23.10;43.30
62809;DHT22;48848;39.002;-94.584;2023-04-03T09:55:53;23.00;43.00
62809;DHT22;48848;39.002;-94.584;2023-04-03T09:58:23;23.00;43.00
62809;DHT22;48848;39.002;-94.584;2023-04-03T10:00:57;23.00;43.10
62809;DHT22;48848;39.002;-94.584;2023-04-03T10:03:24;23.00;43.00
62809;DHT22;48848;39.002;-94.584;2023-04-03T10:05:50;23.00;43.40
62809;DHT22;48848;39.002;-94.584;2023-04-03T10:08:20;23.00;43.40
62809;DHT22;48848;39.002;-94.584;2023-04-03T10:10:46;23.00;43.40
62809;DHT22;48848;39.002;-94.584;2023-04-03T10:13:14;23.00;43.10
62809;DHT22;48848;39.002;-94.584;2023-04-03T10:15:43;23.00;43.20
62809;DHT22;48848;39.002;-94.584;2023-04-03T10:18:17;22.90;43.30
62809;DHT22;48848;39.002;-94.584;2023-04-03T10:20:46;22.90;43.30
62809;DHT22;48848;39.002;-94.584;2023-04-03T10:23:18;22.90;43.30
62809;DHT22;48848;39.002;-94.584;2023-04-03T10:30:43;22.90;43.30
62809;DHT22;48848;39.002;-94.584;2023-04-03T10:33:27;22.90;43.30
62809;DHT22;48848;39.002;-94.584;2023-04-03T10:41:31;22.80;43.40
62809;DHT22;48848;39.002;-94.584;2023-04-03T10:49:23;22.80;43.30
62809;DHT22;48848;39.002;-94.584;2023-04-03T10:52:06;22.80;43.30
62809;DHT22;48848;39.002;-94.584;2023-04-03T10:54:41;22.70;43.20
62809;DHT22;48848;39.002;-94.584;2023-04-03T10:57:10;22.70;43.20
62809;DHT22;48848;39.002;-94.584;2023-04-03T11:02:07;22.70;43.30
62809;DHT22;48848;39.002;-94.584;2023-04-03T11:04:34;22.70;43.20
62809;DHT22;48848;39.002;-94.584;2023-04-03T11:07:08;22.70;43.20
62809;DHT22;48848;39.002;-94.584;2023-04-03T11:09:37;22.70;43.20
62809;DHT22;48848;39.002;-94.584;2023-04-03T11:12:06;22.60;43.10
62809;DHT22;48848;39.002;-94.584;2023-04-03T11:14:36;22.60;43.20
62809;DHT22;48848;39.002;-94.584;2023-04-03T11:17:11;22.60;43.20
62809;DHT22;48848;39.002;-94.584;2023-04-03T11:25:23;22.60;43.20
62809;DHT22;48848;39.002;-94.584;2023-04-03T11:27:47;22.60;43.30
62809;DHT22;48848;39.002;-94.584;2023-04-03T11:35:35;22.50;43.10
62809;DHT22;48848;39.002;-94.584;2023-04-03T11:38:02;22.50;43.20
62809;DHT22;48848;39.002;-94.584;2023-04-03T11:40:32;22.40;43.10
62809;DHT22;48848;39.002;-94.584;2023-04-03T11:47:52;22.40;43.20
62809;DHT22;48848;39.002;-94.584;2023-04-03T11:50:31;22.40;43.20
62809;DHT22;48848;39.002;-94.584;2023-04-03T11:53:25;22.40;43.20
62809;DHT22;48848;39.002;-94.584;2023-04-03T11:55:52;22.40;43.30
62809;DHT22;48848;39.002;-94.584;2023-04-03T11:58:22;22.30;43.20
62809;DHT22;48848;39.002;-94.584;2023-04-03T12:00:50;22.30;43.30
62809;DHT22;48848;39.002;-94.584;2023-04-03T12:05:48;22.30;43.30
62809;DHT22;48848;39.002;-94.584;2023-04-03T12:16:24;22.20;43.10
62809;DHT22;48848;39.002;-94.584;2023-04-03T12:32:13;22.10;43.40
62809;DHT22;48848;39.002;-94.584;2023-04-03T12:34:52;22.10;43.20
62809;DHT22;48848;39.002;-94.584;2023-04-03T12:37:31;22.10;43.30
62809;DHT22;48848;39.002;-94.584;2023-04-03T12:40:43;22.10;43.30
62809;DHT22;48848;39.002;-94.584;2023-04-03T12:45:46;22.00;43.30
62809;DHT22;48848;39.002;-94.584;2023-04-03T12:48:15;22.00;43.30
62809;DHT22;48848;39.002;-94.584;2023-04-03T12:50:41;22.00;43.30
62809;DHT22;48848;39.002;-94.584;2023-04-03T12:53:21;22.00;43.40
62809;DHT22;48848;39.002;-94.584;2023-04-03T12:55:55;22.00;43.60
62809;DHT22;48848;39.002;-94.584;2023-04-03T12:58:23;22.00;43.50
62809;DHT22;48848;39.002;-94.584;2023-04-03T13:01:02;22.00;43.50
62809;DHT22;48848;39.002;-94.584;2023-04-03T13:03:28;21.90;43.60
62809;DHT22;48848;39.002;-94.584;2023-04-03T13:05:59;21.90;43.80
62809;DHT22;48848;39.002;-94.584;2023-04-03T13:08:26;21.90;43.90
62809;DHT22;48848;39.002;-94.584;2023-04-03T13:10:56;21.90;43.60
62809;DHT22;48848;39.002;-94.584;2023-04-03T13:13:23;21.90;43.80
62809;DHT22;48848;39.002;-94.584;2023-04-03T13:15:49;21.80;43.80
62809;DHT22;48848;39.002;-94.584;2023-04-03T13:20:47;21.90;44.00
62809;DHT22;48848;39.002;-94.584;2023-04-03T13:23:14;21.80;44.00
62809;DHT22;48848;39.002;-94.584;2023-04-03T13:25:43;21.80;44.00
62809;DHT22;48848;39.002;-94.584;2023-04-03T13:28:11;21.80;44.10
62809;DHT22;48848;39.002;-94.584;2023-04-03T13:30:38;21.80;44.10
62809;DHT22;48848;39.002;-94.584;2023-04-03T13:33:27;21.80;43.90
62809;DHT22;48848;39.002;-94.584;2023-04-03T13:35:55;21.70;43.80
62809;DHT22;48848;39.002;-94.584;2023-04-03T13:38:22;21.70;43.80
62809;DHT22;48848;39.002;-94.584;2023-04-03T13:40:49;21.70;43.60
62809;DHT22;48848;39.002;-94.584;2023-04-03T13:43:19;21.70;43.50
62809;DHT22;48848;39.002;-94.584;2023-04-03T13:48:40;21.70;43.60
62809;DHT22;48848;39.002;-94.584;2023-04-03T13:51:16;21.70;43.50
62809;DHT22;48848;39.002;-94.584;2023-04-03T13:53:44;21.60;43.60
62809;DHT22;48848;39.002;-94.584;2023-04-03T13:56:21;21.60;43.50
62809;DHT22;48848;39.002;-94.584;2023-04-03T13:58:56;21.60;43.40
62809;DHT22;48848;39.002;-94.584;2023-04-03T14:01:23;21.60;43.40
62809;DHT22;48848;39.002;-94.584;2023-04-03T14:06:18;21.60;43.40
62809;DHT22;48848;39.002;-94.584;2023-04-03T14:08:44;21.60;43.40
62809;DHT22;48848;39.002;-94.584;2023-04-03T14:11:21;21.50;43.50
62809;DHT22;48848;39.002;-94.584;2023-04-03T14:13:47;21.50;43.40
62809;DHT22;48848;39.002;-94.584;2023-04-03T14:16:15;21.50;43.40
62809;DHT22;48848;39.002;-94.584;2023-04-03T14:18:43;21.50;43.50
62809;DHT22;48848;39.002;-94.584;2023-04-03T14:21:12;21.50;43.70
62809;DHT22;48848;39.002;-94.584;2023-04-03T14:23:39;21.50;43.60
62809;DHT22;48848;39.002;-94.584;2023-04-03T14:26:08;21.50;43.70
62809;DHT22;48848;39.002;-94.584;2023-04-03T14:28:35;21.50;43.80
62809;DHT22;48848;39.002;-94.584;2023-04-03T14:31:01;21.50;43.80
62809;DHT22;48848;39.002;-94.584;2023-04-03T14:33:27;21.50;43.90
62809;DHT22;48848;39.002;-94.584;2023-04-03T14:35:56;21.50;44.00
62809;DHT22;48848;39.002;-94.584;2023-04-03T14:40:48;21.50;44.50
62809;DHT22;48848;39.002;-94.584;2023-04-03T14:43:14;21.50;44.60
62809;DHT22;48848;39.002;-94.584;2023-04-03T14:45:40;21.50;44.70
62809;DHT22;48848;39.002;-94.584;2023-04-03T14:48:06;21.50;45.60
62809;DHT22;48848;39.002;-94.584;2023-04-03T14:50:35;21.40;44.70
62809;DHT22;48848;39.002;-94.584;2023-04-03T14:53:01;21.40;44.70
62809;DHT22;48848;39.002;-94.584;2023-04-03T14:55:27;21.40;45.00
62809;DHT22;48848;39.002;-94.584;2023-04-03T14:57:53;21.40;45.00
62809;DHT22;48848;39.002;-94.584;2023-04-03T15:00:20;21.40;45.30
62809;DHT22;48848;39.002;-94.584;2023-04-03T15:02:46;21.40;45.00
62809;DHT22;48848;39.002;-94.584;2023-04-03T15:05:13;21.40;45.10
62809;DHT22;48848;39.002;-94.584;2023-04-03T15:12:41;21.40;45.00
62809;DHT22;48848;39.002;-94.584;2023-04-03T15:15:07;21.40;45.40
62809;DHT22;48848;39.002;-94.584;2023-04-03T15:17:33;21.40;45.10
62809;DHT22;48848;39.002;-94.584;2023-04-03T15:19:59;21.40;45.40
62809;DHT22;48848;39.002;-94.584;2023-04-03T15:22:25;21.40;45.10
62809;DHT22;48848;39.002;-94.584;2023-04-03T15:24:51;21.30;45.60
62809;DHT22;48848;39.002;-94.584;2023-04-03T15:27:17;21.30;45.40
62809;DHT22;48848;39.002;-94.584;2023-04-03T15:29:43;21.30;45.40
62809;DHT22;48848;39.002;-94.584;2023-04-03T15:32:09;21.30;45.40
62809;DHT22;48848;39.002;-94.584;2023-04-03T15:34:36;21.30;45.20
62809;DHT22;48848;39.002;-94.584;2023-04-03T15:37:02;21.30;45.00
62809;DHT22;48848;39.002;-94.584;2023-04-03T15:39:28;21.30;45.10
62809;DHT22;48848;39.002;-94.584;2023-04-03T15:41:54;21.30;45.10
62809;DHT22;48848;39.002;-94.584;2023-04-03T15:44:20;21.30;45.00
62809;DHT22;48848;39.002;-94.584;2023-04-03T15:46:46;21.30;45.10
62809;DHT22;48848;39.002;-94.584;2023-04-03T15:49:14;21.30;45.00
62809;DHT22;48848;39.002;-94.584;2023-04-03T15:51:40;21.30;44.90
62809;DHT22;48848;39.002;-94.584;2023-04-03T15:54:06;21.30;44.90
62809;DHT22;48848;39.002;-94.584;2023-04-03T15:56:32;21.30;45.00
62809;DHT22;48848;39.002;-94.584;2023-04-03T15:58:58;21.30;45.10
62809;DHT22;48848;39.002;-94.584;2023-04-03T16:01:24;21.30;45.30
62809;DHT22;48848;39.002;-94.584;2023-04-03T16:03:50;21.30;45.30
62809;DHT22;48848;39.002;-94.584;2023-04-03T16:06:16;21.30;45.10
62809;DHT22;48848;39.002;-94.584;2023-04-03T16:08:44;21.30;45.00
62809;DHT22;48848;39.002;-94.584;2023-04-03T16:11:10;21.30;45.20
62809;DHT22;48848;39.002;-94.584;2023-04-03T16:13:36;21.30;45.30
62809;DHT22;48848;39.002;-94.584;2023-04-03T16:16:02;21.30;45.20
62809;DHT22;48848;39.002;-94.584;2023-04-03T16:18:28;21.30;45.20
62809;DHT22;48848;39.002;-94.584;2023-04-03T16:20:54;21.30;45.20
62809;DHT22;48848;39.002;-94.584;2023-04-03T16:23:20;21.30;45.70
62809;DHT22;48848;39.002;-94.584;2023-04-03T16:25:46;21.30;45.80
62809;DHT22;48848;39.002;-94.584;2023-04-03T16:28:13;21.30;46.00
62809;DHT22;48848;39.002;-94.584;2023-04-03T16:30:41;21.30;46.00
62809;DHT22;48848;39.002;-94.584;2023-04-03T16:33:08;21.30;46.10
62809;DHT22;48848;39.002;-94.584;2023-04-03T16:35:34;21.30;46.00
62809;DHT22;48848;39.002;-94.584;2023-04-03T16:38:00;21.30;46.10
62809;DHT22;48848;39.002;-94.584;2023-04-03T16:40:26;21.30;46.00
62809;DHT22;48848;39.002;-94.584;2023-04-03T16:42:52;21.30;46.00
62809;DHT22;48848;39.002;-94.584;2023-04-03T16:45:18;21.30;46.00
62809;DHT22;48848;39.002;-94.584;2023-04-03T16:47:44;21.30;46.00
62809;DHT22;48848;39.002;-94.584;2023-04-03T16:50:10;21.30;46.00
62809;DHT22;48848;39.002;-94.584;2023-04-03T16:52:36;21.30;46.00